Aérodrome :
LOGIN :

S'inscrire | Disclaimer

   EN    FR    IT 

 










Légende :    VFR   VFR Marginal   IFR   IFR Intensif   IFR Très Intensif
Visi : 
Plafond : 
>= 8 km
>= 3000ft
5 à 8 km
1000 à 3000 ft
1500m à 5 km
500 à 1000 ft
800 à 1500m
200 à 500 ft
< 800m
< 200 ft
Symboles :   Orages  Brouillard  Fortes neiges  Fortes précipitations  Vent > 20 kt
SIGMETs :   Divers  Orages  Givrage  Turbulence  Onde Orograph.  Cendres Volcan.







- Altitude de l'aérodrome : 49 ft
- Code IATA : GLZ


EHGR - Gilze-Rijen Airbase

DERNIER METAR :
  • 171825Z AUTO VRB01KT 9999 OVC120 11/10 Q1018 BLU VRB02KT 8000 BR MIFG NSC

METARs EXPIRÉS :
  • 171755Z AUTO 31001KT 9999 OVC120 12/11 Q1019 BLU VRB02KT 8000 BR MIFG NSC
  • 171725Z AUTO 00000KT 9000 BR OVC270 12/11 Q1018 BLU VRB02KT 8000 BR MIFG NSC
  • 171715Z AUTO 00000KT 9999 FEW120 OVC270 13/11 Q1018 BLU VRB02KT 8000 BR MIFG NSC
  • 171655Z AUTO VRB02KT 9999 OVC120 13/11 Q1018 BLU VRB02KT CAVOK
  • 171642Z AUTO 11001KT 9999 OVC120 14/12 Q1019 BLU VRB02KT CAVOK
  • 171625Z AUTO 21002KT 9999 OVC120 14/12 Q1019 BLU 25006KT 9999 FEW020 BKN300
  • 171555Z AUTO 26002KT 9999 SCT120 OVC270 15/11 Q1019 BLU 25006KT 9999 FEW020 BKN300

TAF TAF EHGR
Valide du 17 à 17h jusqu'au 18 à 05h UTC


171641Z 1717/1805 VRB02KT CAVOK
BECMG 1723/1801 05006KT
Pas de NOTAMs connus pour ce terrain.



MET'MAP, la Météo Aéronautique d'un coup d'oeil ! - Copyright ORBIFLY Décembre 2007 - Disclaimer

ORBIFLY MET'MAP TEAM :

Programmation & Développement : Alexandra Zaïnal
Conception & Développement : Baudouin d'Aumeries
Co-Programmation & Développement : Marc-Olivier Méhu
Soutien technique & logistique : Manuel Goepfert

Contact : metmap@orbifly.com




SOURCES & CREDITS :

   NOAA